createdAt,value
2018-01-27T00:01:09.074Z,34.00
2018-01-27T00:03:37.368Z,27.52
2018-01-27T00:06:04.830Z,28.20
2018-01-27T00:08:32.317Z,36.35
2018-01-27T00:11:00.563Z,27.98
2018-01-27T00:13:28.127Z,29.20
2018-01-27T00:15:55.683Z,27.13
2018-01-27T00:18:23.169Z,24.92
2018-01-27T00:20:50.658Z,27.52
2018-01-27T00:23:18.909Z,26.27
2018-01-27T00:25:46.393Z,23.60
2018-01-27T00:28:13.887Z,27.80
2018-01-27T00:30:41.366Z,30.65
2018-01-27T00:33:08.850Z,28.92
2018-01-27T00:35:36.427Z,27.52
2018-01-27T00:38:03.969Z,29.70
2018-01-27T00:40:31.456Z,28.30
2018-01-27T00:42:59.760Z,31.73
2018-01-27T00:45:27.369Z,29.45
2018-01-27T00:47:54.844Z,33.63
2018-01-27T00:50:23.123Z,28.55
2018-01-27T00:52:51.374Z,26.42
2018-01-27T00:55:18.861Z,28.40
2018-01-27T00:57:47.153Z,32.13
2018-01-27T01:00:14.633Z,28.48
2018-01-27T01:02:42.122Z,30.00
2018-01-27T01:05:09.619Z,27.75
2018-01-27T01:07:37.101Z,29.90
2018-01-27T01:10:04.609Z,26.98
2018-01-27T01:12:32.114Z,26.10
2018-01-27T01:14:59.597Z,37.83
2018-01-27T01:17:27.698Z,30.90
2018-01-27T01:19:57.058Z,30.92
2018-01-27T01:22:24.572Z,36.72
2018-01-27T01:24:52.821Z,34.85
2018-01-27T01:27:20.338Z,30.30
2018-01-27T01:29:47.868Z,29.50
2018-01-27T01:32:15.381Z,24.67
2018-01-27T01:34:42.870Z,31.70
2018-01-27T01:37:10.414Z,33.17
2018-01-27T01:39:37.892Z,28.15
2018-01-27T01:42:05.366Z,29.83
2018-01-27T01:44:33.777Z,25.75
2018-01-27T01:47:01.262Z,39.88
2018-01-27T01:49:28.747Z,29.08
2018-01-27T01:51:56.244Z,43.50
2018-01-27T01:54:23.721Z,38.45
2018-01-27T01:56:51.197Z,50.20
2018-01-27T01:59:18.693Z,47.90
2018-01-27T02:01:46.968Z,45.65
2018-01-27T02:04:14.482Z,48.45
2018-01-27T02:06:41.981Z,47.45
2018-01-27T02:09:10.230Z,49.10
2018-01-27T02:11:37.719Z,55.38
2018-01-27T02:14:05.238Z,46.08
2018-01-27T02:16:32.726Z,45.70
2018-01-27T02:19:00.982Z,45.85
2018-01-27T02:21:28.637Z,45.97
2018-01-27T02:23:56.188Z,42.92
2018-01-27T02:26:23.662Z,45.38
2018-01-27T02:28:51.162Z,44.33
2018-01-27T02:31:18.666Z,50.08
2018-01-27T02:33:46.150Z,53.58
2018-01-27T02:36:13.710Z,47.25
2018-01-27T02:38:41.217Z,50.90
2018-01-27T02:41:08.701Z,40.00
2018-01-27T02:43:36.199Z,46.03
2018-01-27T02:46:03.686Z,43.80
2018-01-27T02:48:31.178Z,44.53
2018-01-27T02:50:58.680Z,42.20
2018-01-27T02:53:26.922Z,41.40
2018-01-27T02:55:54.418Z,38.00
2018-01-27T02:58:21.943Z,41.60
2018-01-27T03:00:49.413Z,43.97
2018-01-27T03:03:18.157Z,40.72
2018-01-27T03:05:45.778Z,38.03
2018-01-27T03:08:14.027Z,32.05
2018-01-27T03:10:41.501Z,37.45
2018-01-27T03:13:09.770Z,38.28
2018-01-27T03:15:37.272Z,33.67
2018-01-27T03:18:04.756Z,33.80
2018-01-27T03:20:32.253Z,32.45
2018-01-27T03:23:00.501Z,33.90
2018-01-27T03:25:27.985Z,39.78
2018-01-27T03:27:56.253Z,33.47
2018-01-27T03:30:23.733Z,38.22
2018-01-27T03:32:51.990Z,35.38
2018-01-27T03:35:19.490Z,27.40
2018-01-27T03:37:47.027Z,30.95
2018-01-27T03:40:15.272Z,29.23
2018-01-27T03:42:42.749Z,29.52
2018-01-27T03:45:11.039Z,32.03
2018-01-27T03:47:39.297Z,28.12
2018-01-27T03:50:06.837Z,33.50
2018-01-27T03:52:34.381Z,25.65
2018-01-27T03:55:01.862Z,24.77
2018-01-27T03:57:29.344Z,25.62
2018-01-27T03:59:56.868Z,22.77
2018-01-27T04:02:25.117Z,22.25
2018-01-27T04:04:52.693Z,13.02
2018-01-27T04:07:20.189Z,16.87
2018-01-27T04:09:48.437Z,12.30
2018-01-27T04:12:16.014Z,11.30
2018-01-27T04:14:43.526Z,18.30
2018-01-27T04:17:11.020Z,16.65
2018-01-27T04:19:38.572Z,20.95
2018-01-27T04:22:06.631Z,14.02
2018-01-27T04:24:34.118Z,22.75
2018-01-27T04:27:01.618Z,18.77
2018-01-27T04:29:29.125Z,19.98
2018-01-27T04:31:56.611Z,22.83
2018-01-27T04:34:24.090Z,17.85
2018-01-27T04:36:51.625Z,26.25
2018-01-27T04:39:19.878Z,16.48
2018-01-27T04:41:47.361Z,22.08
2018-01-27T04:44:15.671Z,22.50
2018-01-27T04:46:43.151Z,25.40
2018-01-27T04:49:10.646Z,15.90
2018-01-27T04:51:38.157Z,18.42
2018-01-27T04:54:05.645Z,19.65
2018-01-27T04:56:33.121Z,19.77
2018-01-27T04:59:00.637Z,16.40
2018-01-27T05:01:28.121Z,20.45
2018-01-27T05:03:55.597Z,18.10
2018-01-27T05:06:24.289Z,17.15
2018-01-27T05:08:52.661Z,18.98
2018-01-27T05:11:20.149Z,14.23
2018-01-27T05:13:47.634Z,13.85
2018-01-27T05:16:15.113Z,11.57
2018-01-27T05:18:42.620Z,15.82
2018-01-27T05:21:10.859Z,15.80
2018-01-27T05:23:38.397Z,14.65
2018-01-27T05:26:05.934Z,15.40
2018-01-27T05:28:33.433Z,12.52
2018-01-27T05:31:00.929Z,14.38
2018-01-27T05:33:28.445Z,11.88
2018-01-27T05:35:55.929Z,15.88
2018-01-27T05:38:23.466Z,16.90
2018-01-27T05:40:50.962Z,17.70
2018-01-27T05:43:19.222Z,13.13
2018-01-27T05:45:46.722Z,19.00
2018-01-27T05:48:14.197Z,13.90
2018-01-27T05:50:41.677Z,16.52
2018-01-27T05:53:09.178Z,17.37
2018-01-27T05:55:36.657Z,14.27
2018-01-27T05:58:04.137Z,13.23
2018-01-27T06:00:31.687Z,14.65
2018-01-27T06:02:59.217Z,18.15
2018-01-27T06:05:26.703Z,17.33
2018-01-27T06:07:54.208Z,20.70
2018-01-27T06:10:22.501Z,26.50
2018-01-27T06:12:49.958Z,20.05
2018-01-27T06:15:18.217Z,22.70
2018-01-27T06:17:45.697Z,23.58
2018-01-27T06:20:13.190Z,30.30
2018-01-27T06:22:40.693Z,25.55
2018-01-27T06:25:08.205Z,25.85
2018-01-27T06:27:35.728Z,26.15
2018-01-27T06:30:04.040Z,28.25
2018-01-27T06:32:31.518Z,29.35
2018-01-27T06:34:59.010Z,30.62
2018-01-27T06:37:27.306Z,17.55
2018-01-27T06:39:54.841Z,22.40
2018-01-27T06:42:22.453Z,21.87
2018-01-27T06:44:50.009Z,23.00
2018-01-27T06:47:17.978Z,33.17
2018-01-27T06:49:45.946Z,25.50
2018-01-27T06:52:13.492Z,27.52
2018-01-27T06:54:41.021Z,29.73
2018-01-27T06:57:08.624Z,31.20
2018-01-27T06:59:36.756Z,27.35
2018-01-27T07:04:39.881Z,33.65
2018-01-27T07:07:08.233Z,30.75
2018-01-27T07:09:35.890Z,29.33
2018-01-27T07:12:03.437Z,33.30
2018-01-27T07:14:30.960Z,32.28
2018-01-27T07:16:58.453Z,43.80
2018-01-27T07:19:26.207Z,40.50
2018-01-27T07:21:53.701Z,43.87
2018-01-27T07:24:21.177Z,46.95
2018-01-27T07:26:49.645Z,44.55
2018-01-27T07:29:17.897Z,43.63
2018-01-27T07:31:45.394Z,43.45
2018-01-27T07:34:13.653Z,45.83
2018-01-27T07:36:41.135Z,44.92
2018-01-27T07:39:08.621Z,49.75
2018-01-27T07:41:36.162Z,46.13
2018-01-27T07:44:03.649Z,46.28
2018-01-27T07:46:31.135Z,42.85
2018-01-27T07:48:58.622Z,43.42
2018-01-27T07:51:26.884Z,38.00
2018-01-27T07:53:54.418Z,44.20
2018-01-27T07:56:22.121Z,48.20
2018-01-27T07:58:50.370Z,50.70
2018-01-27T08:01:17.856Z,47.95
2018-01-27T08:03:46.117Z,55.25
2018-01-27T08:06:13.602Z,50.25
2018-01-27T08:08:41.176Z,54.22
2018-01-27T08:11:08.689Z,57.20
2018-01-27T08:13:36.173Z,55.80
2018-01-27T08:16:03.737Z,57.65
2018-01-27T08:18:31.979Z,59.25
2018-01-27T08:20:59.561Z,55.92
2018-01-27T08:23:27.149Z,61.95
2018-01-27T08:25:54.684Z,50.05
2018-01-27T08:28:22.225Z,50.00
2018-01-27T08:30:49.769Z,52.95
2018-01-27T08:33:17.262Z,56.92
2018-01-27T08:35:45.566Z,55.53
2018-01-27T08:38:13.100Z,55.08
2018-01-27T08:40:40.617Z,48.92
2018-01-27T08:43:08.114Z,52.65
2018-01-27T08:45:36.358Z,50.38
2018-01-27T08:48:03.833Z,62.10
2018-01-27T08:50:31.336Z,57.10
2018-01-27T08:53:00.010Z,49.15
2018-01-27T08:55:27.497Z,48.72
2018-01-27T08:57:56.562Z,65.28
2018-01-27T09:00:24.070Z,63.35
2018-01-27T09:02:51.569Z,61.47
2018-01-27T09:05:19.914Z,65.43
2018-01-27T09:07:47.401Z,69.62
2018-01-27T09:10:14.894Z,63.38
2018-01-27T09:12:43.070Z,62.45
2018-01-27T09:15:10.562Z,64.70
2018-01-27T09:17:38.079Z,62.25
2018-01-27T09:20:05.695Z,64.85
2018-01-27T09:22:33.237Z,62.05
2018-01-27T09:25:00.727Z,63.25
2018-01-27T09:27:28.981Z,66.65
2018-01-27T09:29:57.137Z,60.00
2018-01-27T09:32:24.636Z,62.88
2018-01-27T09:34:52.899Z,65.03
2018-01-27T09:37:20.610Z,45.58
2018-01-27T09:39:48.094Z,56.37
2018-01-27T09:42:15.582Z,54.60
2018-01-27T09:44:43.088Z,47.83
2018-01-27T09:47:10.617Z,54.80
2018-01-27T09:49:38.903Z,59.67
2018-01-27T09:52:06.378Z,49.70
2018-01-27T09:54:33.879Z,59.05
2018-01-27T09:57:01.370Z,45.47
2018-01-27T09:59:28.883Z,58.70
2018-01-27T10:01:56.366Z,59.35
2018-01-27T10:04:23.850Z,52.60
2018-01-27T10:06:51.337Z,54.33
2018-01-27T10:09:19.137Z,54.35
2018-01-27T10:11:46.658Z,44.53
2018-01-27T10:14:14.129Z,54.70
2018-01-27T10:16:42.425Z,50.15
2018-01-27T10:19:09.928Z,49.90
2018-01-27T10:21:38.177Z,48.03
2018-01-27T10:24:05.661Z,54.10
2018-01-27T10:26:33.140Z,46.67
2018-01-27T10:29:00.643Z,49.95
2018-01-27T10:31:28.125Z,45.22
2018-01-27T10:33:56.481Z,41.05
2018-01-27T10:36:24.785Z,44.65
2018-01-27T10:38:53.058Z,47.62
2018-01-27T10:41:21.308Z,54.45
2018-01-27T10:43:48.791Z,50.58
2018-01-27T10:46:17.147Z,54.50
2018-01-27T10:48:44.633Z,43.03
2018-01-27T10:51:12.894Z,45.42
2018-01-27T10:53:40.471Z,49.05
2018-01-27T10:56:08.711Z,50.55
2018-01-27T10:58:36.198Z,45.25
2018-01-27T11:01:04.458Z,45.38
2018-01-27T11:03:31.994Z,49.17
2018-01-27T11:05:59.481Z,53.95
2018-01-27T11:08:26.969Z,42.45
2018-01-27T11:10:54.449Z,51.45
2018-01-27T11:13:21.945Z,50.22
2018-01-27T11:15:49.634Z,52.72
2018-01-27T11:18:17.882Z,51.08
2018-01-27T11:20:45.420Z,50.33
2018-01-27T11:23:12.928Z,54.15
2018-01-27T11:25:41.174Z,44.65
2018-01-27T11:28:08.791Z,47.03
2018-01-27T11:30:36.526Z,45.12
2018-01-27T11:33:04.778Z,47.30
2018-01-27T11:35:32.263Z,47.50
2018-01-27T11:38:00.573Z,46.83
2018-01-27T11:40:28.166Z,39.30
2018-01-27T11:42:55.768Z,37.33
2018-01-27T11:45:23.310Z,41.78
2018-01-27T11:47:50.790Z,34.72
2018-01-27T11:50:19.630Z,43.67
2018-01-27T11:52:47.238Z,39.30
2018-01-27T11:55:14.761Z,35.45
2018-01-27T11:57:42.489Z,30.55
2018-01-27T12:00:10.030Z,35.03
2018-01-27T12:02:38.250Z,34.92
2018-01-27T12:05:05.769Z,31.80
2018-01-27T12:07:34.184Z,34.55
2018-01-27T12:10:01.662Z,32.85
2018-01-27T12:12:29.146Z,32.47
2018-01-27T12:14:57.423Z,32.70
2018-01-27T12:17:24.990Z,35.03
2018-01-27T12:19:52.486Z,34.33
2018-01-27T12:22:20.000Z,33.17
2018-01-27T12:24:48.254Z,32.97
2018-01-27T12:27:15.736Z,33.25
2018-01-27T12:29:44.042Z,29.50
2018-01-27T12:32:11.529Z,35.42
2018-01-27T12:34:39.002Z,37.70
2018-01-27T12:37:06.529Z,39.92
2018-01-27T12:39:34.005Z,37.25
2018-01-27T12:42:01.719Z,34.83
2018-01-27T12:44:29.992Z,34.75
2018-01-27T12:46:58.246Z,33.45
2018-01-27T12:49:25.730Z,35.17
2018-01-27T12:51:53.954Z,28.20
2018-01-27T12:54:21.437Z,31.25
2018-01-27T12:56:48.914Z,36.20
2018-01-27T12:59:17.225Z,30.45
2018-01-27T13:01:44.710Z,30.37
2018-01-27T13:04:12.189Z,31.23
2018-01-27T13:06:39.707Z,25.02
2018-01-27T13:09:07.205Z,23.58
2018-01-27T13:11:34.730Z,27.15
2018-01-27T13:14:02.229Z,32.97
2018-01-27T13:16:30.482Z,36.20
2018-01-27T13:18:58.126Z,33.47
2018-01-27T13:21:25.621Z,33.42
2018-01-27T13:23:53.875Z,33.15
2018-01-27T13:26:21.375Z,32.70
2018-01-27T13:28:50.691Z,32.83
2018-01-27T13:31:18.182Z,33.03
2018-01-27T13:33:45.670Z,31.23
2018-01-27T13:36:13.148Z,32.97
2018-01-27T13:38:41.397Z,26.00
2018-01-27T13:41:09.077Z,30.33
2018-01-27T13:43:37.330Z,30.52
2018-01-27T13:46:04.822Z,30.52
2018-01-27T13:48:33.104Z,25.02
2018-01-27T13:51:01.426Z,29.67
2018-01-27T13:53:28.946Z,31.10
2018-01-27T13:55:56.518Z,31.98
2018-01-27T13:58:24.008Z,28.45
2018-01-27T14:00:51.482Z,28.87
2018-01-27T14:03:19.033Z,28.02
2018-01-27T14:05:46.518Z,31.52
2018-01-27T14:08:14.018Z,32.75
2018-01-27T14:10:41.529Z,31.73
2018-01-27T14:13:09.854Z,33.92
2018-01-27T14:15:38.064Z,31.98
2018-01-27T14:18:05.620Z,24.45
2018-01-27T14:20:33.125Z,27.85
2018-01-27T14:23:00.601Z,28.83
2018-01-27T14:25:28.132Z,31.95
2018-01-27T14:27:56.393Z,26.67
2018-01-27T14:30:24.643Z,24.67
2018-01-27T14:32:52.162Z,29.02
2018-01-27T14:35:19.649Z,25.42
2018-01-27T14:37:47.133Z,21.05
2018-01-27T14:40:14.671Z,27.37
2018-01-27T14:42:42.154Z,30.92
2018-01-27T14:45:10.433Z,33.38
2018-01-27T14:47:38.717Z,25.10
2018-01-27T14:50:06.965Z,29.25
2018-01-27T14:52:34.461Z,21.62
2018-01-27T14:55:02.773Z,25.65
2018-01-27T14:57:30.274Z,33.60
2018-01-27T14:59:57.749Z,29.02
2018-01-27T15:02:26.025Z,27.77
2018-01-27T15:04:54.350Z,25.17
2018-01-27T15:07:21.857Z,25.65
2018-01-27T15:09:49.377Z,32.42
2018-01-27T15:12:16.874Z,21.17
2018-01-27T15:14:45.145Z,19.77
2018-01-27T15:17:12.673Z,25.45
2018-01-27T15:19:40.161Z,19.27
2018-01-27T15:22:08.440Z,19.77
2018-01-27T15:24:36.715Z,21.52
2018-01-27T15:27:05.047Z,19.73
2018-01-27T15:29:32.550Z,19.20
2018-01-27T15:32:00.831Z,19.65
2018-01-27T15:34:29.112Z,17.27
2018-01-27T15:36:57.378Z,21.33
2018-01-27T15:39:25.642Z,18.33
2018-01-27T15:41:53.244Z,18.10
2018-01-27T15:44:20.750Z,15.52
2018-01-27T15:46:48.321Z,18.62
2018-01-27T15:49:15.869Z,19.92
2018-01-27T15:51:43.375Z,18.02
2018-01-27T15:54:10.858Z,16.90
2018-01-27T15:56:38.370Z,17.52
2018-01-27T15:59:06.623Z,17.02
2018-01-27T16:01:34.105Z,15.77
2018-01-27T16:04:02.399Z,15.95
2018-01-27T16:06:29.882Z,23.83
2018-01-27T16:08:57.409Z,18.62
2018-01-27T16:11:24.926Z,18.37
2018-01-27T16:13:52.836Z,13.82
2018-01-27T16:16:20.324Z,14.73
2018-01-27T16:18:47.841Z,21.33
2018-01-27T16:21:16.097Z,16.52
2018-01-27T16:23:43.573Z,14.35
2018-01-27T16:26:11.857Z,14.40
2018-01-27T16:28:40.097Z,17.55
2018-01-27T16:31:07.782Z,15.95
2018-01-27T16:33:36.037Z,14.87
2018-01-27T16:36:03.550Z,20.50
2018-01-27T16:38:31.087Z,18.30
2018-01-27T16:40:59.330Z,17.15
2018-01-27T16:43:26.810Z,16.30
2018-01-27T16:45:55.677Z,18.30
2018-01-27T16:48:23.170Z,17.75
2018-01-27T16:50:52.617Z,21.40
2018-01-27T16:53:20.128Z,18.00
2018-01-27T16:55:48.378Z,19.25
2018-01-27T16:58:15.874Z,20.67
2018-01-27T17:00:43.374Z,27.35
2018-01-27T17:03:10.865Z,20.35
2018-01-27T17:05:39.174Z,21.08
2018-01-27T17:08:06.669Z,19.85
2018-01-27T17:10:34.918Z,22.37
2018-01-27T17:13:02.434Z,20.77
2018-01-27T17:15:30.713Z,22.48
2018-01-27T17:17:58.958Z,26.33
2018-01-27T17:20:26.450Z,24.35
2018-01-27T17:22:54.762Z,23.70
2018-01-27T17:25:22.261Z,21.52
2018-01-27T17:27:49.787Z,20.98
2018-01-27T17:30:17.336Z,20.88
2018-01-27T17:32:44.814Z,19.17
2018-01-27T17:35:12.314Z,24.10
2018-01-27T17:37:40.570Z,23.50
2018-01-27T17:40:08.060Z,21.90
2018-01-27T17:42:36.317Z,20.55
2018-01-27T17:45:03.838Z,21.62
2018-01-27T17:47:31.337Z,25.48
2018-01-27T17:49:59.605Z,22.27
2018-01-27T17:52:27.114Z,24.63
2018-01-27T17:54:54.622Z,20.30
2018-01-27T17:57:22.114Z,28.55
2018-01-27T17:59:49.653Z,24.58
2018-01-27T18:02:17.906Z,21.48
2018-01-27T18:04:45.401Z,26.20
2018-01-27T18:07:12.898Z,24.27
2018-01-27T18:09:40.390Z,27.37
2018-01-27T18:12:07.870Z,22.85
2018-01-27T18:14:36.739Z,27.25
2018-01-27T18:17:04.226Z,26.37
2018-01-27T18:19:31.728Z,24.08
2018-01-27T18:21:59.210Z,23.08
2018-01-27T18:24:26.695Z,20.20
2018-01-27T18:26:54.454Z,20.25
2018-01-27T18:29:22.726Z,22.62
2018-01-27T18:31:50.241Z,22.58
2018-01-27T18:34:17.753Z,21.83
2018-01-27T18:36:46.101Z,22.85
2018-01-27T18:39:13.633Z,21.58
2018-01-27T18:41:41.130Z,23.10
2018-01-27T18:44:09.390Z,21.23
2018-01-27T18:46:36.886Z,19.70
2018-01-27T18:49:04.537Z,21.02
2018-01-27T18:51:32.786Z,20.90
2018-01-27T18:54:00.278Z,23.10
2018-01-27T18:56:27.777Z,17.67
2018-01-27T18:58:55.323Z,22.15
2018-01-27T19:01:22.820Z,24.12
2018-01-27T19:03:50.902Z,19.67
2018-01-27T19:06:19.172Z,22.83
2018-01-27T19:08:46.653Z,22.00
2018-01-27T19:11:14.165Z,21.23
2018-01-27T19:13:41.922Z,19.50
2018-01-27T19:16:09.459Z,19.48
2018-01-27T19:18:36.949Z,21.95
2018-01-27T19:21:05.210Z,22.10
2018-01-27T19:23:32.751Z,20.42
2018-01-27T19:26:00.233Z,17.67
2018-01-27T19:28:27.713Z,17.02
2018-01-27T19:30:55.199Z,18.90
2018-01-27T19:33:23.501Z,20.37
2018-01-27T19:35:50.982Z,17.77
2018-01-27T19:38:18.477Z,19.35
2018-01-27T19:40:46.887Z,21.95
2018-01-27T19:43:14.393Z,19.40
2018-01-27T19:45:42.635Z,24.73
2018-01-27T19:48:10.190Z,19.30
2018-01-27T19:50:37.670Z,25.83
2018-01-27T19:53:06.849Z,20.83
2018-01-27T19:55:34.407Z,19.62
2018-01-27T19:58:01.889Z,19.25
2018-01-27T20:00:30.203Z,23.12
2018-01-27T20:02:58.479Z,19.23
2018-01-27T20:05:26.753Z,20.08
2018-01-27T20:07:55.558Z,23.60
2018-01-27T20:10:23.343Z,23.48
2018-01-27T20:12:50.941Z,27.48
2018-01-27T20:15:20.081Z,25.08
2018-01-27T20:17:48.529Z,24.35
2018-01-27T20:20:17.206Z,23.92
2018-01-27T20:22:45.272Z,19.58
2018-01-27T20:25:14.256Z,26.17
2018-01-27T20:27:42.214Z,20.48
2018-01-27T20:30:10.512Z,23.58
2018-01-27T20:32:38.434Z,19.77
2018-01-27T20:35:06.161Z,24.45
2018-01-27T20:37:34.643Z,25.37
2018-01-27T20:40:06.266Z,21.05
2018-01-27T20:42:34.099Z,23.77
2018-01-27T20:45:02.165Z,24.10
2018-01-27T20:47:29.936Z,22.40
2018-01-27T20:49:57.857Z,18.73
2018-01-27T20:52:25.607Z,27.00
2018-01-27T20:54:54.447Z,26.67
2018-01-27T20:57:22.542Z,24.40
2018-01-27T20:59:50.616Z,28.48
2018-01-27T21:02:18.250Z,29.20
2018-01-27T21:04:45.862Z,31.65
2018-01-27T21:07:14.546Z,29.05
2018-01-27T21:09:43.377Z,37.85
2018-01-27T21:12:11.094Z,29.00
2018-01-27T21:14:39.995Z,32.15
2018-01-27T21:17:08.710Z,29.85
2018-01-27T21:19:37.393Z,33.17
2018-01-27T21:22:05.817Z,38.83
2018-01-27T21:24:33.397Z,33.88
2018-01-27T21:27:02.042Z,37.72
2018-01-27T21:29:30.994Z,35.88
2018-01-27T21:32:03.633Z,40.17
2018-01-27T21:34:31.153Z,45.30
2018-01-27T21:37:00.876Z,37.03
2018-01-27T21:39:29.290Z,40.35
2018-01-27T21:41:57.377Z,45.25
2018-01-27T21:44:26.266Z,33.78
2018-01-27T21:46:54.152Z,42.60
2018-01-27T21:49:21.665Z,42.85
2018-01-27T21:51:49.202Z,46.67
2018-01-27T21:54:16.813Z,42.40
2018-01-27T21:56:45.619Z,35.80
2018-01-27T21:59:13.155Z,45.95
2018-01-27T22:01:40.763Z,50.12
2018-01-27T22:04:08.327Z,44.92
2018-01-27T22:06:37.911Z,49.50
2018-01-27T22:09:05.538Z,40.58
2018-01-27T22:11:33.077Z,51.17
2018-01-27T22:14:02.549Z,50.38
2018-01-27T22:16:30.150Z,48.38
2018-01-27T22:18:57.642Z,48.80
2018-01-27T22:21:25.275Z,45.58
2018-01-27T22:23:52.854Z,47.40
2018-01-27T22:26:20.455Z,42.72
2018-01-27T22:28:48.093Z,47.13
2018-01-27T22:31:15.578Z,44.28
2018-01-27T22:33:43.847Z,47.10
2018-01-27T22:36:12.101Z,47.17
2018-01-27T22:38:39.585Z,45.03
2018-01-27T22:41:08.066Z,42.50
2018-01-27T22:43:36.313Z,51.15
2018-01-27T22:46:03.807Z,45.55
2018-01-27T22:48:32.113Z,42.50
2018-01-27T22:50:59.595Z,40.10
2018-01-27T22:53:27.091Z,42.45
2018-01-27T22:55:55.361Z,49.40
2018-01-27T22:58:23.614Z,47.38
2018-01-27T23:00:56.801Z,39.38
2018-01-27T23:03:24.301Z,34.67
2018-01-27T23:05:52.566Z,36.83
2018-01-27T23:08:20.889Z,35.50
2018-01-27T23:10:48.394Z,41.28
2018-01-27T23:13:15.870Z,33.88
2018-01-27T23:15:45.981Z,40.35
2018-01-27T23:18:14.318Z,39.38
2018-01-27T23:20:41.806Z,37.30
2018-01-27T23:23:09.277Z,39.70
2018-01-27T23:25:36.793Z,40.72
2018-01-27T23:28:04.278Z,40.97
2018-01-27T23:30:31.757Z,38.90
2018-01-27T23:32:59.278Z,35.70
2018-01-27T23:35:26.765Z,37.03
2018-01-27T23:37:54.265Z,37.88
2018-01-27T23:40:22.528Z,30.45
2018-01-27T23:42:50.013Z,39.33
2018-01-27T23:45:17.498Z,37.05
2018-01-27T23:47:45.021Z,40.67
2018-01-27T23:50:12.503Z,34.40
2018-01-27T23:52:39.990Z,30.95
2018-01-27T23:55:08.253Z,30.77
2018-01-27T23:57:36.505Z,38.10
